Time;durP1;ratioP1;P1;durP2;ratioP2;P2;SDS_P1;SDS_P2;PMS_P1;PMS_P2;Temp;Humidity;BMP_temperature;BMP_pressure;BME280_temperature;BME280_humidity;BME280_pressure;Samples;Min_cycle;Max_cycle;Signal;HPM_P1;HPM_P2
2022/03/02 00:00:03;;;;;;;5.78;5.30;;;15.80;43.30;;;;;;5052657;28;20534;-73
2022/03/02 00:02:28;;;;;;;6.32;5.57;;;15.70;43.30;;;;;;5053412;28;20102;-79
2022/03/02 00:04:54;;;;;;;6.95;6.22;;;15.70;43.40;;;;;;5052777;28;20452;-73
2022/03/02 00:07:20;;;;;;;6.72;6.05;;;15.80;43.40;;;;;;5052404;28;20041;-73
2022/03/02 00:09:48;;;;;;;6.20;5.70;;;15.70;43.30;;;;;;5053846;28;20037;-73
2022/03/02 00:12:14;;;;;;;6.72;6.03;;;15.70;43.40;;;;;;5052697;28;20037;-73
2022/03/02 00:14:40;;;;;;;6.82;6.22;;;15.70;43.40;;;;;;5052344;28;20045;-73
2022/03/02 00:17:05;;;;;;;6.38;5.68;;;15.70;43.40;;;;;;5052312;28;20036;-73
2022/03/02 00:19:31;;;;;;;5.85;5.35;;;15.70;43.50;;;;;;5052416;28;20047;-73
2022/03/02 00:21:57;;;;;;;6.22;5.63;;;15.60;43.40;;;;;;5052192;28;20506;-75
2022/03/02 00:24:22;;;;;;;6.00;5.40;;;15.60;43.40;;;;;;5052140;28;20397;-73
2022/03/02 00:26:48;;;;;;;6.47;5.88;;;15.70;43.50;;;;;;5052138;28;20040;-78
2022/03/02 00:29:14;;;;;;;6.35;5.75;;;15.60;43.60;;;;;;5052080;28;20087;-73
2022/03/02 00:31:39;;;;;;;6.55;5.65;;;15.60;43.60;;;;;;5051940;28;20044;-73
2022/03/02 00:34:11;;;;;;;6.00;5.45;;;15.60;43.60;;;;;;5052225;28;20106;-73
2022/03/02 00:36:36;;;;;;;6.57;5.97;;;15.60;43.60;;;;;;5052156;28;20135;-73
2022/03/02 00:39:03;;;;;;;6.63;6.03;;;15.60;43.70;;;;;;5052101;28;20452;-78
2022/03/02 00:41:28;;;;;;;6.20;5.60;;;15.60;43.70;;;;;;5053215;28;20048;-73
2022/03/02 00:43:55;;;;;;;6.60;6.00;;;15.60;43.70;;;;;;5051802;28;20037;-73
2022/03/02 00:46:23;;;;;;;7.05;6.35;;;15.60;43.70;;;;;;5050875;28;20045;-77
2022/03/02 00:48:49;;;;;;;7.45;5.57;;;15.50;43.70;;;;;;5051624;28;20053;-73
2022/03/02 00:51:15;;;;;;;7.25;5.55;;;15.50;43.70;;;;;;5052758;28;20147;-75
2022/03/02 00:53:41;;;;;;;6.32;5.72;;;15.50;43.70;;;;;;5051816;28;20036;-73
2022/03/02 00:56:09;;;;;;;6.45;5.47;;;15.50;43.70;;;;;;5051764;28;20510;-73
2022/03/02 00:58:34;;;;;;;7.15;6.10;;;15.50;43.80;;;;;;5052844;28;20393;-73
2022/03/02 01:01:00;;;;;;;6.20;5.60;;;15.50;43.70;;;;;;5051272;28;20037;-73
2022/03/02 01:03:25;;;;;;;6.18;5.57;;;15.50;43.80;;;;;;5051223;28;20049;-73
2022/03/02 01:05:51;;;;;;;6.75;6.07;;;15.50;43.80;;;;;;5051514;28;20145;-77
2022/03/02 01:08:19;;;;;;;6.00;5.45;;;15.50;43.80;;;;;;5051089;28;20048;-75
2022/03/02 01:10:45;;;;;;;6.57;5.55;;;15.50;43.90;;;;;;5051228;28;20048;-74
2022/03/02 01:13:11;;;;;;;6.07;5.57;;;15.50;43.90;;;;;;5051229;28;20040;-74
2022/03/02 01:15:36;;;;;;;6.78;6.07;;;15.40;43.80;;;;;;5052619;28;20052;-79
2022/03/02 01:18:02;;;;;;;7.28;6.57;;;15.40;43.90;;;;;;5051842;28;20037;-73
2022/03/02 01:20:28;;;;;;;5.63;5.13;;;15.40;43.90;;;;;;5050877;28;20037;-73
2022/03/02 01:22:54;;;;;;;5.93;5.32;;;15.40;43.90;;;;;;5050884;28;20041;-75
2022/03/02 01:25:20;;;;;;;6.18;5.57;;;15.40;43.90;;;;;;5050986;28;20033;-74
2022/03/02 01:27:45;;;;;;;6.03;5.53;;;15.40;44.00;;;;;;5052169;28;20033;-73
2022/03/02 01:30:14;;;;;;;6.80;5.93;;;15.40;44.00;;;;;;5051234;28;20064;-73
2022/03/02 01:32:40;;;;;;;6.72;5.95;;;15.40;44.10;;;;;;5050837;28;20037;-73
2022/03/02 01:35:12;;;;;;;6.55;5.95;;;15.40;44.00;;;;;;5052114;28;20032;-73
2022/03/02 01:37:38;;;;;;;5.47;5.03;;;15.40;44.10;;;;;;5050622;28;20451;-73
2022/03/02 01:40:09;;;;;;;6.38;5.78;;;15.40;44.10;;;;;;5050802;28;20086;-74
2022/03/02 01:42:36;;;;;;;6.30;5.70;;;15.30;44.10;;;;;;5050688;28;20033;-73
2022/03/02 01:45:03;;;;;;;7.45;6.63;;;15.30;44.00;;;;;;5052115;28;20538;-73
2022/03/02 01:47:29;;;;;;;6.88;6.28;;;15.30;44.80;;;;;;5050857;28;20126;-73
2022/03/02 01:49:55;;;;;;;6.40;5.75;;;15.30;44.10;;;;;;5050650;28;20492;-73
2022/03/02 01:52:24;;;;;;;6.38;5.78;;;15.30;44.10;;;;;;5050776;28;20045;-77
2022/03/02 01:54:50;;;;;;;7.60;6.80;;;15.30;44.10;;;;;;5050871;28;20500;-73
2022/03/02 01:57:16;;;;;;;6.25;5.63;;;15.30;44.10;;;;;;5050407;28;20072;-73
2022/03/02 01:59:41;;;;;;;5.75;5.18;;;15.30;44.10;;;;;;5051762;28;20041;-73
2022/03/02 02:02:07;;;;;;;6.68;5.40;;;15.30;44.20;;;;;;5050204;28;20045;-79
2022/03/02 02:04:33;;;;;;;6.68;5.35;;;15.30;44.20;;;;;;5050486;28;20052;-78
2022/03/02 02:06:59;;;;;;;5.40;4.90;;;15.40;44.10;;;;;;5050648;28;20064;-78
2022/03/02 02:09:24;;;;;;;5.00;4.35;;;15.60;43.90;;;;;;5051647;28;20068;-78
2022/03/02 02:11:51;;;;;;;5.47;4.95;;;15.80;43.80;;;;;;5050680;28;20037;-79
2022/03/02 02:14:17;;;;;;;4.68;4.28;;;16.00;43.40;;;;;;5050620;28;20427;-73
2022/03/02 02:16:45;;;;;;;5.53;4.95;;;16.30;43.00;;;;;;5050690;28;20075;-73
2022/03/02 02:19:11;;;;;;;6.05;5.32;;;16.60;42.50;;;;;;5051654;28;20029;-78
2022/03/02 02:21:37;;;;;;;5.50;4.45;;;16.90;42.10;;;;;;5050240;28;20446;-78
2022/03/02 02:24:03;;;;;;;5.05;4.55;;;17.20;41.70;;;;;;5050202;28;20047;-78
2022/03/02 02:26:28;;;;;;;4.95;4.55;;;17.40;41.30;;;;;;5050337;28;20099;-79
2022/03/02 02:28:58;;;;;;;5.13;4.63;;;17.60;41.00;;;;;;5051726;28;20057;-73
2022/03/02 02:31:24;;;;;;;5.93;4.60;;;17.80;40.60;;;;;;5050330;28;20044;-78
2022/03/02 02:33:51;;;;;;;5.47;4.82;;;18.10;40.30;;;;;;5050145;28;20287;-78
2022/03/02 02:36:18;;;;;;;5.28;4.75;;;18.30;40.10;;;;;;5050449;28;20102;-78
2022/03/02 02:38:44;;;;;;;5.45;4.63;;;18.40;39.70;;;;;;5050126;28;20059;-78
2022/03/02 02:41:10;;;;;;;5.80;5.20;;;18.50;39.50;;;;;;5051436;28;20053;-78
2022/03/02 02:43:37;;;;;;;5.07;4.45;;;18.70;39.30;;;;;;5050339;28;20033;-74
2022/03/02 02:46:03;;;;;;;5.40;4.60;;;18.80;39.10;;;;;;5051466;28;20052;-73
2022/03/02 02:48:29;;;;;;;6.80;4.68;;;19.00;38.90;;;;;;5051300;28;20045;-78
2022/03/02 02:50:55;;;;;;;5.93;5.28;;;19.10;38.70;;;;;;5050134;28;20094;-73
2022/03/02 02:53:20;;;;;;;4.50;4.10;;;19.20;38.50;;;;;;5049986;28;20048;-78
2022/03/02 02:55:47;;;;;;;5.18;4.68;;;19.30;38.30;;;;;;5050315;28;20119;-78
2022/03/02 02:58:14;;;;;;;4.20;3.80;;;19.40;38.20;;;;;;5050209;28;20045;-76
2022/03/02 03:00:43;;;;;;;4.50;4.10;;;19.50;38.00;;;;;;5049825;28;20040;-76
2022/03/02 03:03:09;;;;;;;5.05;4.63;;;19.50;37.80;;;;;;5051060;28;20052;-73
2022/03/02 03:05:35;;;;;;;5.22;4.72;;;19.60;37.70;;;;;;5050163;28;20041;-76
2022/03/02 03:08:05;;;;;;;4.57;4.18;;;19.70;37.60;;;;;;5051115;28;20457;-77
2022/03/02 03:10:31;;;;;;;5.20;4.70;;;19.80;37.50;;;;;;5054642;28;20040;-78
2022/03/02 03:12:57;;;;;;;4.80;4.40;;;19.80;37.40;;;;;;5053744;28;20049;-78
2022/03/02 03:15:23;;;;;;;4.72;4.25;;;19.90;37.30;;;;;;5053471;28;20044;-74
2022/03/02 03:17:49;;;;;;;4.47;4.07;;;20.00;37.20;;;;;;5054618;28;20069;-74
2022/03/02 03:20:19;;;;;;;5.85;5.20;;;20.00;37.10;;;;;;5053368;28;20094;-74
2022/03/02 03:22:45;;;;;;;5.22;4.68;;;20.00;36.90;;;;;;5053176;28;20484;-74
2022/03/02 03:25:12;;;;;;;4.85;4.35;;;20.10;36.90;;;;;;5053172;28;20068;-73
2022/03/02 03:27:39;;;;;;;4.53;4.13;;;20.10;36.80;;;;;;5054644;28;20040;-78
2022/03/02 03:30:07;;;;;;;5.55;5.05;;;20.20;36.80;;;;;;5053173;28;20477;-76
2022/03/02 03:32:33;;;;;;;6.38;4.78;;;20.20;36.70;;;;;;5053382;28;20045;-74
2022/03/02 03:34:59;;;;;;;5.93;5.32;;;20.20;36.70;;;;;;5053307;28;20103;-74
2022/03/02 03:37:26;;;;;;;4.65;4.25;;;20.20;36.60;;;;;;5053222;28;20087;-78
2022/03/02 03:39:51;;;;;;;5.75;5.20;;;20.30;36.60;;;;;;5053241;28;20050;-78
2022/03/02 03:42:17;;;;;;;5.93;5.20;;;20.30;36.50;;;;;;5054170;28;20473;-73
2022/03/02 03:44:43;;;;;;;5.47;4.90;;;20.30;36.40;;;;;;5052930;28;20459;-78
2022/03/02 03:47:09;;;;;;;6.07;5.47;;;20.30;36.30;;;;;;5053444;28;20037;-78
2022/03/02 03:49:35;;;;;;;5.22;4.72;;;20.30;36.30;;;;;;5053087;28;20128;-77
2022/03/02 03:52:01;;;;;;;5.30;4.80;;;20.30;36.40;;;;;;5053971;28;20131;-77
2022/03/02 03:54:27;;;;;;;6.03;5.10;;;20.20;36.40;;;;;;5052114;28;20131;-74
2022/03/02 03:56:53;;;;;;;5.18;4.57;;;20.20;36.40;;;;;;5052663;28;20076;-77
2022/03/02 03:59:18;;;;;;;5.00;4.53;;;20.20;36.40;;;;;;5053916;28;20052;-76
2022/03/02 04:01:44;;;;;;;5.25;4.53;;;20.20;36.50;;;;;;5053421;28;20049;-77
2022/03/02 04:04:10;;;;;;;5.53;5.03;;;20.10;36.40;;;;;;5052786;28;20045;-73
2022/03/02 04:06:35;;;;;;;5.07;4.63;;;20.20;36.50;;;;;;5053709;28;20498;-73
2022/03/02 04:09:02;;;;;;;5.43;4.93;;;20.20;36.50;;;;;;5052475;28;20051;-77
2022/03/02 04:11:29;;;;;;;4.95;4.50;;;20.20;36.40;;;;;;5052323;28;20511;-76
2022/03/02 04:13:54;;;;;;;5.50;5.10;;;20.20;36.40;;;;;;5052468;28;20585;-78
2022/03/02 04:16:20;;;;;;;5.38;4.88;;;20.30;36.30;;;;;;5053580;28;20124;-75
2022/03/02 04:18:46;;;;;;;5.28;4.78;;;20.30;36.20;;;;;;5053574;28;20037;-78
2022/03/02 04:21:15;;;;;;;5.10;4.60;;;20.30;36.20;;;;;;5052126;28;20485;-78
2022/03/02 04:23:41;;;;;;;5.78;4.43;;;20.30;36.20;;;;;;5052149;28;20037;-73
2022/03/02 04:26:06;;;;;;;5.72;5.22;;;20.30;36.20;;;;;;5052460;28;20044;-74
2022/03/02 04:28:32;;;;;;;5.43;4.93;;;20.30;36.10;;;;;;5052087;28;20044;-73
2022/03/02 04:30:58;;;;;;;6.15;5.60;;;20.40;36.10;;;;;;5052274;28;20044;-74
2022/03/02 04:33:23;;;;;;;5.70;5.20;;;20.40;36.10;;;;;;5053181;28;20094;-73
2022/03/02 04:35:49;;;;;;;4.93;4.45;;;20.40;36.20;;;;;;5053206;28;20449;-73
2022/03/02 04:38:15;;;;;;;4.63;4.22;;;20.30;36.10;;;;;;5051785;28;20044;-73
2022/03/02 04:40:41;;;;;;;6.03;5.43;;;20.30;36.10;;;;;;5052125;28;20102;-73
2022/03/02 04:43:10;;;;;;;5.35;4.85;;;20.40;36.10;;;;;;5052762;28;20594;-73
2022/03/02 04:45:36;;;;;;;5.68;4.95;;;20.30;36.10;;;;;;5053001;28;20481;-73
2022/03/02 04:48:01;;;;;;;5.55;5.05;;;20.30;36.00;;;;;;5051828;28;20036;-73
2022/03/02 04:50:27;;;;;;;5.78;5.18;;;20.30;36.10;;;;;;5052977;28;20428;-73
2022/03/02 04:52:54;;;;;;;5.53;5.03;;;20.30;36.10;;;;;;5051825;28;20102;-73
2022/03/02 04:55:21;;;;;;;5.72;5.22;;;20.30;36.20;;;;;;5051579;28;20124;-73
2022/03/02 04:57:54;;;;;;;5.82;5.22;;;20.20;36.20;;;;;;5051730;28;20084;-73
2022/03/02 05:00:25;;;;;;;6.22;5.63;;;20.20;36.20;;;;;;5051723;28;20048;-73
2022/03/02 05:02:52;;;;;;;5.78;5.28;;;20.20;36.20;;;;;;5051138;28;20041;-73
2022/03/02 05:05:21;;;;;;;7.10;5.72;;;20.30;36.20;;;;;;5051575;28;20033;-74
2022/03/02 05:07:47;;;;;;;6.18;5.57;;;20.20;36.20;;;;;;5051499;28;20205;-73
2022/03/02 05:10:15;;;;;;;5.10;4.70;;;20.20;36.20;;;;;;5052873;28;20069;-74
2022/03/02 05:12:44;;;;;;;5.80;5.22;;;20.20;36.20;;;;;;5052702;28;20045;-73
2022/03/02 05:15:12;;;;;;;5.55;5.00;;;20.20;36.20;;;;;;5051152;28;20481;-73
2022/03/02 05:17:38;;;;;;;5.03;4.63;;;20.20;36.20;;;;;;5051785;28;20519;-76
2022/03/02 05:20:06;;;;;;;6.75;5.50;;;20.20;36.20;;;;;;5051340;28;20041;-78
2022/03/02 05:22:32;;;;;;;5.68;5.07;;;20.30;36.20;;;;;;5050936;28;20094;-73
2022/03/02 05:24:58;;;;;;;5.75;5.18;;;20.30;36.20;;;;;;5050968;28;20033;-73
2022/03/02 05:27:24;;;;;;;6.15;5.55;;;20.30;36.20;;;;;;5050968;28;20044;-73
2022/03/02 05:29:50;;;;;;;5.45;4.90;;;20.30;36.10;;;;;;5051222;28;20064;-76
2022/03/02 05:32:15;;;;;;;5.28;4.78;;;20.30;36.10;;;;;;5050818;28;20623;-77
2022/03/02 05:34:41;;;;;;;6.40;5.80;;;20.30;36.10;;;;;;5052126;28;20106;-73
2022/03/02 05:37:07;;;;;;;6.05;5.43;;;20.30;36.10;;;;;;5050843;28;20700;-73
2022/03/02 05:39:32;;;;;;;5.30;4.78;;;20.30;36.00;;;;;;5051080;28;20045;-77
2022/03/02 05:41:58;;;;;;;5.72;5.18;;;20.30;36.00;;;;;;5050783;28;20033;-77
2022/03/02 05:44:24;;;;;;;5.45;4.95;;;20.30;36.00;;;;;;5050718;28;20033;-78
2022/03/02 05:46:50;;;;;;;7.07;5.57;;;20.30;36.10;;;;;;5050710;28;20040;-73
2022/03/02 05:49:19;;;;;;;6.50;5.65;;;20.30;36.10;;;;;;5051923;28;20037;-74
2022/03/02 05:51:44;;;;;;;5.47;4.97;;;20.20;36.00;;;;;;5051896;28;20118;-73
2022/03/02 05:54:10;;;;;;;5.80;5.28;;;20.30;36.10;;;;;;5050557;28;20048;-73
2022/03/02 05:56:37;;;;;;;6.00;5.43;;;20.20;36.10;;;;;;5050847;28;20132;-74
2022/03/02 05:59:08;;;;;;;5.65;4.90;;;20.20;36.10;;;;;;5050645;28;20056;-73
2022/03/02 06:01:41;;;;;;;5.75;5.10;;;20.20;36.10;;;;;;5051522;28;20065;-78
2022/03/02 06:04:07;;;;;;;5.97;5.47;;;20.10;36.10;;;;;;5050601;28;20083;-73
2022/03/02 06:06:35;;;;;;;5.38;4.88;;;20.10;36.20;;;;;;5050321;28;20047;-76
2022/03/02 06:09:03;;;;;;;5.32;4.93;;;20.10;36.20;;;;;;5050821;28;20049;-73
2022/03/02 06:11:29;;;;;;;6.63;5.38;;;20.10;36.20;;;;;;5050442;28;20037;-74
2022/03/02 06:13:56;;;;;;;5.85;5.07;;;20.10;36.20;;;;;;5050851;28;20037;-76
2022/03/02 06:16:21;;;;;;;5.90;5.30;;;20.10;36.20;;;;;;5051726;28;20428;-73
2022/03/02 06:18:47;;;;;;;6.32;5.45;;;20.00;36.20;;;;;;5050653;28;20029;-73
2022/03/02 06:21:29;;;;;;;5.80;5.20;;;20.00;36.20;;;;;;5050456;28;20048;-73
2022/03/02 06:24:01;;;;;;;6.60;5.63;;;20.00;36.20;;;;;;5050351;28;20156;-74
2022/03/02 06:26:27;;;;;;;6.25;5.45;;;20.10;36.20;;;;;;5049640;28;20052;-70
2022/03/02 06:28:53;;;;;;;4.72;4.22;;;20.10;36.40;;;;;;5049830;28;20033;-66
2022/03/02 06:31:19;;;;;;;6.40;5.75;;;20.10;37.30;;;;;;5048554;28;20048;-68
2022/03/02 06:33:46;;;;;;;8.50;6.03;;;20.00;38.00;;;;;;5048328;28;20037;-69
2022/03/02 06:36:12;;;;;;;7.60;5.18;;;20.00;38.40;;;;;;5049166;28;20059;-71
2022/03/02 06:38:38;;;;;;;6.95;5.70;;;20.00;38.60;;;;;;5048313;28;20536;-71
2022/03/02 06:41:22;;;;;;;9.75;5.38;;;20.00;38.60;;;;;;5048295;28;20124;-68
2022/03/02 06:46:43;;;;;;;6.03;5.43;;;20.10;38.80;;;;;;5125714;27;20390;-67
2022/03/02 06:52:03;;;;;;;13.70;7.63;;;20.10;38.70;;;;;;5119973;27;20197;-68
2022/03/02 06:54:31;;;;;;;10.65;6.63;;;20.20;38.30;;;;;;5108776;28;20052;-69
2022/03/02 06:57:03;;;;;;;8.82;7.25;;;20.30;38.20;;;;;;5103773;28;20443;-69
2022/03/02 06:59:35;;;;;;;10.68;7.82;;;20.30;38.80;;;;;;5100497;28;20048;-70
2022/03/02 07:02:03;;;;;;;12.10;8.45;;;20.40;37.70;;;;;;5101932;28;20039;-70
2022/03/02 07:04:33;;;;;;;9.55;7.18;;;20.40;37.60;;;;;;5100051;28;20105;-70
2022/03/02 07:07:01;;;;;;;10.27;8.43;;;20.40;37.50;;;;;;5100929;28;20461;-70
2022/03/02 07:09:29;;;;;;;9.95;8.35;;;20.50;37.30;;;;;;5098285;28;20089;-70
2022/03/02 07:11:56;;;;;;;10.80;7.85;;;20.50;37.00;;;;;;5100131;28;20040;-74
2022/03/02 07:14:25;;;;;;;7.80;6.85;;;20.60;37.00;;;;;;5102511;28;20753;-77
2022/03/02 07:16:52;;;;;;;8.50;6.68;;;20.60;37.10;;;;;;5062993;28;20040;-73
2022/03/02 07:19:21;;;;;;;7.68;6.75;;;20.70;37.20;;;;;;5080410;28;20032;-72
2022/03/02 07:21:47;;;;;;;8.98;6.88;;;20.80;37.00;;;;;;5077534;28;20058;-75
2022/03/02 07:24:18;;;;;;;7.20;6.47;;;20.90;36.70;;;;;;5075063;28;20036;-78
2022/03/02 07:26:46;;;;;;;8.07;5.55;;;20.90;37.00;;;;;;5079648;28;20114;-78
2022/03/02 07:29:14;;;;;;;10.30;7.63;;;20.90;37.40;;;;;;5087521;28;20071;-77
2022/03/02 07:31:41;;;;;;;11.55;9.10;;;20.90;37.60;;;;;;5079008;28;20048;-75
2022/03/02 07:34:12;;;;;;;12.52;7.30;;;20.90;37.50;;;;;;5094664;27;20044;-70
2022/03/02 07:36:40;;;;;;;7.45;6.75;;;20.80;38.30;;;;;;5080459;28;20047;-73
2022/03/02 07:39:07;;;;;;;11.07;6.50;;;20.70;37.70;;;;;;5079106;28;20036;-68
2022/03/02 07:41:32;;;;;;;9.55;6.55;;;20.70;37.90;;;;;;5078722;28;20100;-68
2022/03/02 07:43:58;;;;;;;8.88;6.93;;;20.70;38.00;;;;;;5083421;28;20039;-68
2022/03/02 07:46:28;;;;;;;8.20;7.28;;;20.70;38.30;;;;;;5084419;28;20115;-67
2022/03/02 07:48:54;;;;;;;8.82;6.93;;;20.60;38.60;;;;;;5084014;28;20519;-67
2022/03/02 07:51:21;;;;;;;6.93;6.07;;;20.60;38.80;;;;;;5081834;28;20048;-70
2022/03/02 07:53:49;;;;;;;9.30;6.35;;;20.70;38.90;;;;;;5101264;27;20048;-70
2022/03/02 07:56:16;;;;;;;7.53;6.07;;;20.60;39.00;;;;;;5086220;28;20419;-70
2022/03/02 07:58:43;;;;;;;6.78;5.32;;;20.60;39.10;;;;;;5100420;27;20055;-70
2022/03/02 08:01:13;;;;;;;7.03;5.07;;;20.60;39.00;;;;;;5077301;28;20132;-80
2022/03/02 08:03:42;;;;;;;6.43;5.25;;;20.60;39.00;;;;;;5065565;28;20100;-76
2022/03/02 08:06:09;;;;;;;5.95;5.35;;;20.70;39.00;;;;;;5069485;28;20052;-71
2022/03/02 08:08:36;;;;;;;6.93;4.95;;;20.70;38.80;;;;;;5070592;28;20130;-75
2022/03/02 08:11:03;;;;;;;7.50;6.43;;;20.70;39.00;;;;;;5071902;28;20588;-74
2022/03/02 08:13:32;;;;;;;6.43;5.18;;;20.70;39.00;;;;;;5065755;28;20048;-72
2022/03/02 08:16:01;;;;;;;6.13;5.45;;;20.70;39.00;;;;;;5084590;28;20047;-72
2022/03/02 08:18:27;;;;;;;7.93;5.30;;;20.70;39.00;;;;;;5067654;28;20070;-72
2022/03/02 08:20:54;;;;;;;6.50;5.40;;;20.60;39.00;;;;;;5063162;28;20194;-70
2022/03/02 08:23:21;;;;;;;9.55;5.78;;;20.50;39.20;;;;;;5068268;28;20045;-71
2022/03/02 08:25:52;;;;;;;6.85;6.07;;;20.50;39.40;;;;;;5084889;28;20113;-71
2022/03/02 08:28:18;;;;;;;;;;;20.40;40.20;;;;;;5076404;28;20119;-72
2022/03/02 08:30:45;;;;;;;6.88;5.75;;;20.30;39.80;;;;;;5069519;28;20431;-72
2022/03/02 08:33:18;;;;;;;9.27;5.80;;;20.20;39.80;;;;;;5072925;28;20040;-70
2022/03/02 08:35:45;;;;;;;8.50;6.25;;;20.20;40.20;;;;;;5075394;28;20128;-69
2022/03/02 08:38:10;;;;;;;9.38;6.60;;;20.10;40.30;;;;;;5071548;28;20698;-71
2022/03/02 08:40:37;;;;;;;8.35;5.82;;;20.00;40.40;;;;;;5070547;28;20071;-71
2022/03/02 08:43:05;;;;;;;7.47;5.30;;;20.00;40.60;;;;;;5071848;28;20040;-71
2022/03/02 08:45:34;;;;;;;8.50;6.05;;;20.00;40.70;;;;;;5071216;28;20491;-69
2022/03/02 08:48:03;;;;;;;11.30;5.82;;;19.90;40.90;;;;;;5071674;28;20036;-70
2022/03/02 08:50:31;;;;;;;10.00;6.03;;;19.90;41.90;;;;;;5071114;28;20048;-69
2022/03/02 08:52:58;;;;;;;9.90;5.90;;;19.90;41.20;;;;;;5081905;27;20135;-68
2022/03/02 08:55:29;;;;;;;7.90;5.50;;;19.90;41.40;;;;;;5068440;28;20063;-68
2022/03/02 08:57:57;;;;;;;9.05;5.32;;;19.90;41.60;;;;;;5076253;28;20047;-70
2022/03/02 09:00:23;;;;;;;7.65;6.85;;;20.00;41.70;;;;;;5084396;27;20037;-70
2022/03/02 09:02:52;;;;;;;10.10;5.57;;;20.00;41.70;;;;;;5069476;28;20032;-67
2022/03/02 09:05:18;;;;;;;8.10;6.40;;;20.00;41.60;;;;;;5083241;27;20035;-70
2022/03/02 09:07:45;;;;;;;8.93;6.78;;;20.00;41.70;;;;;;5073904;28;20521;-67
2022/03/02 09:10:11;;;;;;;10.95;6.45;;;20.00;41.70;;;;;;5073555;28;20093;-75
2022/03/02 09:12:41;;;;;;;12.70;5.90;;;20.00;41.70;;;;;;5070964;28;20040;-67
2022/03/02 09:15:07;;;;;;;7.65;5.55;;;20.00;42.00;;;;;;5072270;28;20058;-64
2022/03/02 09:17:32;;;;;;;7.25;5.90;;;20.00;42.10;;;;;;5070388;28;20036;-69
2022/03/02 09:20:02;;;;;;;9.85;6.07;;;20.00;42.10;;;;;;5071946;28;20122;-80
2022/03/02 09:22:29;;;;;;;8.25;5.50;;;20.00;42.00;;;;;;5073702;28;20040;-73
2022/03/02 09:24:56;;;;;;;10.70;7.18;;;20.00;41.90;;;;;;5066841;28;20423;-74
2022/03/02 09:27:27;;;;;;;13.38;6.32;;;20.00;41.90;;;;;;5072394;28;20106;-72
2022/03/02 09:29:53;;;;;;;11.35;7.05;;;19.90;41.40;;;;;;5072992;28;20050;-72
2022/03/02 09:32:22;;;;;;;9.18;6.18;;;19.90;40.60;;;;;;5073138;28;20043;-72
2022/03/02 09:34:57;;;;;;;8.52;7.32;;;19.80;40.10;;;;;;5073386;28;20044;-71
2022/03/02 09:37:24;;;;;;;11.10;5.75;;;19.80;40.20;;;;;;5070592;28;20037;-72
2022/03/02 09:39:51;;;;;;;7.47;5.63;;;19.70;40.40;;;;;;5087516;28;20056;-70
2022/03/02 09:42:27;;;;;;;9.95;6.60;;;19.70;40.40;;;;;;5068556;28;20054;-70
2022/03/02 09:45:01;;;;;;;7.75;5.78;;;19.70;40.40;;;;;;5069593;28;20039;-73
2022/03/02 09:47:41;;;;;;;10.88;5.60;;;19.60;40.60;;;;;;5070548;28;20044;-72
2022/03/02 09:50:12;;;;;;;7.47;5.30;;;19.60;41.10;;;;;;5088493;28;20102;-72
2022/03/02 09:52:40;;;;;;;7.57;5.82;;;19.60;41.10;;;;;;5072856;28;20760;-71
2022/03/02 09:55:09;;;;;;;5.63;5.10;;;19.60;40.90;;;;;;5074156;28;20037;-70
2022/03/02 09:57:43;;;;;;;5.70;4.85;;;19.60;41.00;;;;;;5070837;28;20123;-71
2022/03/02 10:00:11;;;;;;;6.50;5.68;;;19.60;40.90;;;;;;5071114;28;20071;-70
2022/03/02 10:02:40;;;;;;;7.45;5.60;;;19.60;40.60;;;;;;5084703;27;20036;-70
2022/03/02 10:05:11;;;;;;;6.97;4.97;;;19.60;40.40;;;;;;5069026;28;20750;-68
2022/03/02 10:07:40;;;;;;;8.93;5.00;;;19.60;40.30;;;;;;5082595;28;20087;-68
2022/03/02 10:10:10;;;;;;;6.85;5.20;;;19.70;40.30;;;;;;5071045;28;20048;-76
2022/03/02 10:12:37;;;;;;;7.37;5.13;;;19.60;39.80;;;;;;5071539;28;20044;-72
2022/03/02 10:15:09;;;;;;;7.13;5.07;;;19.70;39.70;;;;;;5067685;28;20047;-73
2022/03/02 10:17:43;;;;;;;8.07;5.18;;;19.70;39.40;;;;;;5065113;28;20106;-73
2022/03/02 10:37:28;;;;;;;5.18;4.68;;;20.00;39.20;;;;;;5075815;27;20446;-66
2022/03/02 10:45:28;;;;;;;4.95;4.53;;;20.10;38.80;;;;;;5079406;27;20412;-70
2022/03/02 10:50:54;;;;;;;5.33;4.83;;;20.60;38.20;;;;;;5073972;27;1869073;-72
2022/03/02 10:53:21;;;;;;;;;;;20.60;37.90;;;;;;5089653;27;21503;-75
2022/03/02 10:55:48;;;;;;;6.90;6.05;;;20.70;37.20;;;;;;5092558;28;19968;-76
2022/03/02 10:58:16;;;;;;;7.28;5.15;;;20.70;37.30;;;;;;5092720;28;20059;-75
2022/03/02 11:00:42;;;;;;;6.07;5.07;;;20.80;36.80;;;;;;5093215;28;20047;-77
2022/03/02 11:03:08;;;;;;;6.80;5.22;;;20.80;36.90;;;;;;5093531;28;20054;-77
2022/03/02 11:05:35;;;;;;;8.25;4.95;;;20.80;36.70;;;;;;5108808;27;20042;-76
2022/03/02 11:08:02;;;;;;;5.30;4.07;;;20.80;36.80;;;;;;5111687;28;20093;-73
2022/03/02 11:10:32;;;;;;;6.55;4.70;;;20.80;36.80;;;;;;5094021;28;20573;-76
2022/03/02 11:13:02;;;;;;;5.75;4.53;;;20.80;36.80;;;;;;5109689;27;20647;-79
2022/03/02 11:21:20;;;;;;;6.47;4.80;;;20.90;36.60;;;;;;5119731;27;1172873;-62
2022/03/02 11:26:30;;;;;;;6.18;3.58;;;20.80;36.70;;;;;;5091197;27;1163147;-68
2022/03/02 11:29:02;;;;;;;9.48;3.90;;;20.90;36.80;;;;;;5097715;28;20051;-69
2022/03/02 11:31:31;;;;;;;5.85;4.30;;;20.80;36.80;;;;;;5116169;28;20049;-71
2022/03/02 11:36:53;;;;;;;8.88;6.03;;;20.90;36.90;;;;;;5110511;27;20404;-70
2022/03/02 11:39:22;;;;;;;7.78;5.60;;;20.80;35.40;;;;;;5094132;28;20067;-69
2022/03/02 11:41:52;;;;;;;12.27;5.70;;;20.80;35.70;;;;;;5088733;28;20048;-69
2022/03/02 11:44:29;;;;;;;6.65;5.95;;;20.80;35.90;;;;;;5093055;28;20036;-71
2022/03/02 11:47:00;;;;;;;10.63;6.45;;;20.80;35.30;;;;;;5086048;28;20051;-72
2022/03/02 11:49:48;;;;;;;6.68;5.63;;;20.80;34.80;;;;;;5109958;28;20093;-72
2022/03/02 11:52:17;;;;;;;6.55;4.93;;;20.80;34.20;;;;;;5102435;28;20406;-72
2022/03/02 11:55:05;;;;;;;7.72;5.45;;;20.80;34.60;;;;;;5102724;28;20466;-73
2022/03/02 11:57:39;;;;;;;5.15;4.65;;;20.80;35.00;;;;;;5100099;28;20101;-73
2022/03/02 12:00:12;;;;;;;4.03;3.63;;;20.80;35.10;;;;;;5107992;28;20471;-68
2022/03/02 12:05:30;;;;;;;4.53;4.13;;;20.80;35.30;;;;;;5123349;27;20860;-70
2022/03/02 12:08:07;;;;;;;9.57;4.90;;;20.80;35.30;;;;;;5120531;28;20142;-73
2022/03/02 12:10:35;;;;;;;5.80;4.07;;;20.80;35.10;;;;;;5140755;27;20045;-71
2022/03/02 12:13:02;;;;;;;6.03;4.80;;;20.80;35.30;;;;;;5120810;28;20031;-67
2022/03/02 12:15:48;;;;;;;7.20;4.93;;;20.80;35.40;;;;;;5124060;28;20055;-69
2022/03/02 12:18:15;;;;;;;4.45;3.70;;;20.80;35.00;;;;;;5124294;27;20483;-70
2022/03/02 12:20:50;;;;;;;5.57;3.95;;;20.80;35.10;;;;;;5125061;28;20036;-67
2022/03/02 12:23:22;;;;;;;4.55;4.15;;;20.80;35.30;;;;;;5125940;27;20432;-71
2022/03/02 12:25:48;;;;;;;5.10;4.32;;;20.90;35.40;;;;;;5124580;28;20088;-71
2022/03/02 12:28:18;;;;;;;4.75;3.72;;;20.90;35.00;;;;;;5125832;28;20051;-73
2022/03/02 12:30:43;;;;;;;4.50;3.88;;;20.90;34.70;;;;;;5123054;28;20041;-71
2022/03/02 12:33:10;;;;;;;4.93;4.28;;;21.00;34.70;;;;;;5124859;28;20110;-70
2022/03/02 12:35:36;;;;;;;5.20;3.90;;;21.00;34.80;;;;;;5124667;28;20039;-71
2022/03/02 12:38:05;;;;;;;4.47;3.70;;;21.00;34.70;;;;;;5124137;27;20039;-71
2022/03/02 12:40:39;;;;;;;3.30;3.00;;;21.10;34.70;;;;;;5123495;27;20122;-69
2022/03/02 12:43:08;;;;;;;4.45;3.85;;;21.10;34.70;;;;;;5112016;27;20047;-71
2022/03/02 12:45:41;;;;;;;6.47;3.83;;;21.10;34.50;;;;;;5107661;27;20399;-70
2022/03/02 12:48:08;;;;;;;6.90;3.75;;;21.20;34.20;;;;;;5107209;27;21477;-70
2022/03/02 12:50:34;;;;;;;7.25;3.92;;;21.20;34.20;;;;;;5108429;27;20031;-69
2022/03/02 12:53:01;;;;;;;5.47;3.67;;;21.20;34.40;;;;;;5110909;27;20047;-71
2022/03/02 12:55:27;;;;;;;4.80;3.38;;;21.20;34.40;;;;;;5114396;27;20903;-71
2022/03/02 12:57:53;;;;;;;7.28;3.85;;;21.20;34.20;;;;;;5118422;27;20110;-71
2022/03/02 13:00:21;;;;;;;4.90;3.25;;;21.20;34.10;;;;;;5119842;27;20138;-73
2022/03/02 13:02:50;;;;;;;3.85;3.45;;;21.20;34.20;;;;;;5122614;28;20118;-70
2022/03/02 13:05:24;;;;;;;10.23;3.83;;;21.10;34.20;;;;;;5123221;28;20171;-73
2022/03/02 13:10:52;;;;;;;5.22;3.22;;;21.10;33.70;;;;;;5125713;27;20439;-71
2022/03/02 13:13:38;;;;;;;4.00;3.45;;;21.10;33.80;;;;;;5125276;27;20168;-71
2022/03/02 13:16:25;;;;;;;3.63;3.28;;;21.00;33.50;;;;;;5130323;27;20031;-68
2022/03/02 13:18:53;;;;;;;5.57;3.47;;;21.10;33.70;;;;;;5118342;27;20043;-70
2022/03/02 13:21:24;;;;;;;3.03;2.60;;;21.00;33.80;;;;;;5116924;27;20051;-71
2022/03/02 13:32:54;;;;;;;5.25;3.42;;;21.00;33.90;;;;;;5148120;27;20348;-71
2022/03/02 13:35:26;;;;;;;4.28;3.70;;;21.00;33.80;;;;;;5146842;27;20049;-73
2022/03/02 13:40:44;;;;;;;3.75;3.20;;;20.90;34.00;;;;;;5149481;27;1153821;-77
2022/03/02 13:48:46;;;;;;;6.03;3.13;;;20.90;34.10;;;;;;5087286;27;20142;-73
2022/03/02 13:51:12;;;;;;;4.00;3.45;;;20.80;33.80;;;;;;5075438;28;20040;-72
2022/03/02 13:53:44;;;;;;;4.43;3.55;;;20.70;33.70;;;;;;5071657;28;20116;-73